createdAt,value
2023-04-20T00:01:56.925Z,22.20
2023-04-20T00:04:26.582Z,22.50
2023-04-20T00:06:57.166Z,22.20
2023-04-20T00:09:25.786Z,22.40
2023-04-20T00:11:53.982Z,21.90
2023-04-20T00:14:22.149Z,21.70
2023-04-20T00:16:50.376Z,21.10
2023-04-20T00:19:18.784Z,21.20
2023-04-20T00:21:48.834Z,21.10
2023-04-20T00:24:17.022Z,21.60
2023-04-20T00:26:47.993Z,21.40
2023-04-20T00:29:16.407Z,21.80
2023-04-20T00:31:47.800Z,21.90
2023-04-20T00:34:16.176Z,21.80
2023-04-20T00:36:44.404Z,21.20
2023-04-20T00:39:14.048Z,21.00
2023-04-20T00:41:42.225Z,21.30
2023-04-20T00:44:13.861Z,21.70
2023-04-20T00:46:42.241Z,22.00
2023-04-20T00:49:11.021Z,21.20
2023-04-20T00:51:39.738Z,21.30
2023-04-20T00:54:07.957Z,21.10
2023-04-20T00:56:39.245Z,21.10
2023-04-20T00:59:09.084Z,21.30
2023-04-20T01:01:37.456Z,21.80
2023-04-20T01:04:07.872Z,22.00
2023-04-20T01:06:36.285Z,21.80
2023-04-20T01:09:04.674Z,21.90
2023-04-20T01:11:41.092Z,22.00
2023-04-20T01:14:09.324Z,22.20
2023-04-20T01:16:56.614Z,22.30
2023-04-20T01:19:44.722Z,22.50
2023-04-20T01:22:34.587Z,22.20
2023-04-20T01:25:23.485Z,21.80
2023-04-20T01:28:14.330Z,21.80
2023-04-20T01:31:04.022Z,21.20
2023-04-20T01:33:53.760Z,21.30
2023-04-20T01:36:42.667Z,21.50
2023-04-20T01:39:12.936Z,21.70
2023-04-20T01:41:41.282Z,21.30
2023-04-20T01:44:09.657Z,21.20
2023-04-20T01:46:40.283Z,21.10
2023-04-20T01:49:09.368Z,21.30
2023-04-20T01:51:38.445Z,21.00
2023-04-20T01:54:06.789Z,20.80
2023-04-20T01:56:37.220Z,21.10
2023-04-20T01:59:05.480Z,21.10
2023-04-20T02:01:35.212Z,20.70
2023-04-20T02:04:04.006Z,20.60
2023-04-20T02:06:33.040Z,20.80
2023-04-20T02:09:01.632Z,20.60
2023-04-20T02:11:29.834Z,20.50
2023-04-20T02:13:59.421Z,20.90
2023-04-20T02:16:29.372Z,20.50
2023-04-20T02:18:58.804Z,20.50
2023-04-20T02:21:27.926Z,20.20
2023-04-20T02:23:56.416Z,20.50
2023-04-20T02:26:24.758Z,20.70
2023-04-20T02:28:52.959Z,20.80
2023-04-20T02:31:22.547Z,21.00
2023-04-20T02:33:51.426Z,21.20
2023-04-20T02:36:20.787Z,21.30
2023-04-20T02:38:48.964Z,20.90
2023-04-20T02:41:17.142Z,20.80
2023-04-20T02:43:45.448Z,21.10
2023-04-20T02:46:13.687Z,20.80
2023-04-20T02:48:43.294Z,20.60
2023-04-20T02:51:11.969Z,21.00
2023-04-20T02:53:44.666Z,20.90
2023-04-20T02:56:27.877Z,20.90
2023-04-20T02:58:59.352Z,21.10
2023-04-20T03:01:42.361Z,21.40
2023-04-20T03:04:19.293Z,21.30
2023-04-20T03:06:54.900Z,21.10
2023-04-20T03:09:28.918Z,21.40
2023-04-20T03:11:57.846Z,21.60
2023-04-20T03:14:48.341Z,21.70
2023-04-20T03:17:18.117Z,21.80
2023-04-20T03:19:48.497Z,21.80
2023-04-20T03:22:19.204Z,22.00
2023-04-20T03:24:51.915Z,22.20
2023-04-20T03:27:37.056Z,22.30
2023-04-20T03:30:11.902Z,22.50
2023-04-20T03:32:40.473Z,22.60
2023-04-20T03:35:10.923Z,22.60
2023-04-20T03:37:39.446Z,22.70
2023-04-20T03:40:10.377Z,22.60
2023-04-20T03:42:38.703Z,22.70
2023-04-20T03:45:08.485Z,22.60
2023-04-20T03:47:36.951Z,22.50
2023-04-20T03:50:05.940Z,21.60
2023-04-20T03:52:38.389Z,22.00
2023-04-20T03:55:07.631Z,21.90
2023-04-20T03:57:39.528Z,21.90
2023-04-20T04:00:10.776Z,21.80
2023-04-20T04:02:47.976Z,21.50
2023-04-20T04:05:23.997Z,21.50
2023-04-20T04:07:53.688Z,21.30
2023-04-20T04:10:21.939Z,21.00
2023-04-20T04:12:50.789Z,21.00
2023-04-20T04:15:20.265Z,21.00
2023-04-20T04:17:55.065Z,21.60
2023-04-20T04:20:23.856Z,21.70
2023-04-20T04:22:54.284Z,21.50
2023-04-20T04:25:42.252Z,21.70
2023-04-20T04:28:14.575Z,21.80
2023-04-20T04:30:54.215Z,22.00
2023-04-20T04:33:22.487Z,22.20
2023-04-20T04:35:55.567Z,22.10
2023-04-20T04:38:26.706Z,22.40
2023-04-20T04:40:56.398Z,22.10
2023-04-20T04:43:25.683Z,22.30
2023-04-20T04:46:09.686Z,22.40
2023-04-20T04:48:40.711Z,21.40
2023-04-20T04:51:09.568Z,21.10
2023-04-20T04:53:39.118Z,21.20
2023-04-20T04:56:08.076Z,20.60
2023-04-20T04:58:36.233Z,20.70
2023-04-20T05:01:04.435Z,20.40
2023-04-20T05:03:32.721Z,20.60
2023-04-20T05:06:01.324Z,21.10
2023-04-20T05:08:29.506Z,21.30
2023-04-20T05:10:59.897Z,21.50
2023-04-20T05:13:28.078Z,21.60
2023-04-20T05:15:59.312Z,22.00
2023-04-20T05:18:27.501Z,22.60
2023-04-20T05:20:58.582Z,22.90
2023-04-20T05:23:26.870Z,22.40
2023-04-20T05:25:55.077Z,23.10
2023-04-20T05:28:24.611Z,23.00
2023-04-20T05:30:55.038Z,22.90
2023-04-20T05:33:23.848Z,22.50
2023-04-20T05:35:52.061Z,23.30
2023-04-20T05:38:20.211Z,23.70
2023-04-20T05:40:49.769Z,24.00
2023-04-20T05:43:19.658Z,24.30
2023-04-20T05:45:50.194Z,24.50
2023-04-20T05:48:18.414Z,24.60
2023-04-20T05:50:46.841Z,24.80
2023-04-20T05:53:15.692Z,24.90
2023-04-20T05:55:43.852Z,25.00
2023-04-20T05:58:13.065Z,25.10
2023-04-20T06:00:41.392Z,25.30
2023-04-20T06:03:11.155Z,25.20
2023-04-20T06:05:39.659Z,25.40
2023-04-20T06:08:07.974Z,25.50
2023-04-20T06:10:37.858Z,25.50
2023-04-20T06:13:06.049Z,25.60
2023-04-20T06:15:34.291Z,25.70
2023-04-20T06:18:02.478Z,25.60
2023-04-20T06:20:32.064Z,25.60
2023-04-20T06:23:00.237Z,25.80
2023-04-20T06:25:28.420Z,25.50
2023-04-20T06:27:56.645Z,25.00
2023-04-20T06:30:24.971Z,24.90
2023-04-20T06:32:53.308Z,25.00
2023-04-20T06:35:22.569Z,24.80
2023-04-20T06:37:52.091Z,25.30
2023-04-20T06:40:20.374Z,25.20
2023-04-20T06:42:48.618Z,24.80
2023-04-20T06:45:18.149Z,25.10
2023-04-20T06:47:46.654Z,25.20
2023-04-20T06:50:14.876Z,25.00
2023-04-20T06:52:43.281Z,24.90
2023-04-20T06:55:13.362Z,24.90
2023-04-20T06:57:43.813Z,25.00
2023-04-20T07:00:18.589Z,25.10
2023-04-20T07:02:50.458Z,25.30
2023-04-20T07:05:19.735Z,25.80
2023-04-20T07:07:47.946Z,26.20
2023-04-20T07:10:17.798Z,26.30
2023-04-20T07:12:46.343Z,25.50
2023-04-20T07:15:14.878Z,24.60
2023-04-20T07:17:43.173Z,24.80
2023-04-20T07:20:12.145Z,25.50
2023-04-20T07:22:40.443Z,26.00
2023-04-20T07:25:10.067Z,26.40
2023-04-20T07:27:41.309Z,26.70
2023-04-20T07:30:11.396Z,27.00
2023-04-20T07:32:40.816Z,27.20
2023-04-20T07:35:09.748Z,27.40
2023-04-20T07:37:38.120Z,27.50
2023-04-20T07:40:08.787Z,26.70
2023-04-20T07:42:38.140Z,27.10
2023-04-20T07:45:09.030Z,27.40
2023-04-20T07:47:38.116Z,27.40
2023-04-20T07:50:07.446Z,27.50
2023-04-20T07:52:38.223Z,27.60
2023-04-20T07:55:11.518Z,27.60
2023-04-20T07:57:39.847Z,27.80
2023-04-20T08:00:12.664Z,27.90
2023-04-20T08:02:47.772Z,27.90
2023-04-20T08:05:16.174Z,28.00
2023-04-20T08:07:44.400Z,27.90
2023-04-20T08:10:15.440Z,27.70
2023-04-20T08:12:43.625Z,27.70
2023-04-20T08:15:14.485Z,27.80
2023-04-20T08:17:42.843Z,27.90
2023-04-20T08:20:11.597Z,28.10
2023-04-20T08:22:40.597Z,27.80
2023-04-20T08:25:09.418Z,27.80
2023-04-20T08:27:37.637Z,28.00
2023-04-20T08:30:07.859Z,27.90
2023-04-20T08:32:37.715Z,27.80
2023-04-20T08:35:06.308Z,27.80
2023-04-20T08:37:34.914Z,27.90
2023-04-20T08:40:04.074Z,28.10
2023-04-20T08:42:32.530Z,28.20
2023-04-20T08:45:00.817Z,28.20
2023-04-20T08:47:29.711Z,28.30
2023-04-20T08:50:01.113Z,28.50
2023-04-20T08:52:29.338Z,28.60
2023-04-20T08:54:58.127Z,28.60
2023-04-20T08:57:27.164Z,28.60
2023-04-20T08:59:55.474Z,28.30
2023-04-20T09:02:23.895Z,28.30
2023-04-20T09:05:05.139Z,28.20
2023-04-20T09:07:34.072Z,28.20
2023-04-20T09:10:02.645Z,28.40
2023-04-20T09:12:42.078Z,28.50
2023-04-20T09:15:11.568Z,28.40
2023-04-20T09:17:41.254Z,28.40
2023-04-20T09:20:12.283Z,28.30
2023-04-20T09:22:43.311Z,28.30
2023-04-20T09:25:19.047Z,28.20
2023-04-20T09:27:56.897Z,28.00
2023-04-20T09:30:27.205Z,28.00
2023-04-20T09:33:08.369Z,27.80
2023-04-20T09:35:39.873Z,27.50
2023-04-20T09:38:08.183Z,27.50
2023-04-20T09:40:39.321Z,27.30
2023-04-20T09:43:15.299Z,27.30
2023-04-20T09:45:44.739Z,27.40
2023-04-20T09:48:15.408Z,27.50
2023-04-20T09:50:49.734Z,27.50
2023-04-20T09:53:20.469Z,27.60
2023-04-20T09:55:49.867Z,27.40
2023-04-20T09:58:20.284Z,27.40
2023-04-20T10:00:49.004Z,27.50
2023-04-20T10:03:18.609Z,27.50
2023-04-20T10:05:48.482Z,27.50
2023-04-20T10:08:16.788Z,27.60
2023-04-20T10:10:46.985Z,27.60
2023-04-20T10:13:19.413Z,27.60
2023-04-20T10:15:47.948Z,27.80
2023-04-20T10:18:18.683Z,27.90
2023-04-20T10:20:48.358Z,28.00
2023-04-20T10:23:18.648Z,28.00
2023-04-20T10:25:56.728Z,27.80
2023-04-20T10:28:25.105Z,27.60
2023-04-20T10:30:54.547Z,27.50
2023-04-20T10:33:22.952Z,27.70
2023-04-20T10:35:54.848Z,27.80
2023-04-20T10:38:31.612Z,27.80
2023-04-20T10:41:08.232Z,27.60
2023-04-20T10:43:38.963Z,27.60
2023-04-20T10:46:17.846Z,27.70
2023-04-20T10:48:54.760Z,27.60
2023-04-20T10:51:24.806Z,27.40
2023-04-20T10:54:01.112Z,27.40
2023-04-20T10:56:29.398Z,27.50
2023-04-20T10:59:07.736Z,27.40
2023-04-20T11:01:35.967Z,27.30
2023-04-20T11:04:04.599Z,27.30
2023-04-20T11:06:35.120Z,27.20
2023-04-20T11:09:03.874Z,27.10
2023-04-20T11:11:32.058Z,27.20
2023-04-20T11:14:08.416Z,27.00
2023-04-20T11:16:49.594Z,27.20
2023-04-20T11:19:24.977Z,27.30
2023-04-20T11:21:54.709Z,27.50
2023-04-20T11:24:26.222Z,27.50
2023-04-20T11:26:55.223Z,27.60
2023-04-20T11:29:30.805Z,27.70
2023-04-20T11:31:59.711Z,27.60
2023-04-20T11:34:28.100Z,27.80
2023-04-20T11:36:58.924Z,27.90
2023-04-20T11:39:29.586Z,28.10
2023-04-20T11:41:58.150Z,28.00
2023-04-20T11:44:27.294Z,28.20
2023-04-20T11:46:57.526Z,28.20
2023-04-20T11:49:26.772Z,28.50
2023-04-20T11:51:55.363Z,28.80
2023-04-20T11:54:25.346Z,28.90
2023-04-20T11:56:53.751Z,29.30
2023-04-20T11:59:22.020Z,29.70
2023-04-20T12:01:50.180Z,29.90
2023-04-20T12:04:18.707Z,30.10
2023-04-20T12:06:49.419Z,30.10
2023-04-20T12:09:18.014Z,29.90
2023-04-20T12:11:47.824Z,29.90
2023-04-20T12:14:15.992Z,29.80
2023-04-20T12:16:44.207Z,29.90
2023-04-20T12:19:16.046Z,29.80
2023-04-20T12:21:44.398Z,29.90
2023-04-20T12:24:12.559Z,29.70
2023-04-20T12:26:40.812Z,29.80
2023-04-20T12:29:10.509Z,30.00
2023-04-20T12:31:38.827Z,29.90
2023-04-20T12:34:07.142Z,30.00
2023-04-20T12:36:36.540Z,29.90
2023-04-20T12:39:05.153Z,29.90
2023-04-20T12:41:34.497Z,30.00
2023-04-20T12:44:05.837Z,29.80
2023-04-20T12:46:36.772Z,29.70
2023-04-20T12:49:04.933Z,29.90
2023-04-20T12:51:33.274Z,30.10
2023-04-20T12:54:06.868Z,30.10
2023-04-20T12:56:35.022Z,29.90
2023-04-20T12:59:03.430Z,29.60
2023-04-20T13:01:31.647Z,29.20
2023-04-20T13:04:01.663Z,29.30
2023-04-20T13:06:29.996Z,29.40
2023-04-20T13:08:58.205Z,29.30
2023-04-20T13:11:27.349Z,29.30
2023-04-20T13:13:56.451Z,29.30
2023-04-20T13:16:24.687Z,29.50
2023-04-20T13:18:52.912Z,29.60
2023-04-20T13:21:22.477Z,29.40
2023-04-20T13:23:51.231Z,29.20
2023-04-20T13:26:19.488Z,29.20
2023-04-20T13:28:47.631Z,29.00
2023-04-20T13:31:15.956Z,28.90
2023-04-20T13:33:44.172Z,28.80
2023-04-20T13:36:12.667Z,28.70
2023-04-20T13:38:42.237Z,28.60
2023-04-20T13:41:10.509Z,28.80
2023-04-20T13:43:38.647Z,28.90
2023-04-20T13:46:07.046Z,28.80
2023-04-20T13:48:35.281Z,28.90
2023-04-20T13:51:03.638Z,29.00
2023-04-20T13:53:31.829Z,29.10
2023-04-20T13:56:01.386Z,29.10
2023-04-20T13:58:29.740Z,29.10
2023-04-20T14:00:58.270Z,29.30
2023-04-20T14:03:27.298Z,29.40
2023-04-20T14:05:58.450Z,29.30
2023-04-20T14:08:26.621Z,29.30
2023-04-20T14:10:55.007Z,29.60
2023-04-20T14:13:24.702Z,29.60
2023-04-20T14:15:55.576Z,29.80
2023-04-20T14:18:23.911Z,29.90
2023-04-20T14:20:52.452Z,30.10
2023-04-20T14:23:20.769Z,30.20
2023-04-20T14:25:48.992Z,30.30
2023-04-20T14:28:17.784Z,30.30
2023-04-20T14:30:47.436Z,30.40
2023-04-20T14:33:18.144Z,30.70
2023-04-20T14:35:46.436Z,30.80
2023-04-20T14:38:16.724Z,30.70
2023-04-20T14:40:44.918Z,30.50
2023-04-20T14:43:13.090Z,30.30
2023-04-20T14:45:44.697Z,30.10
2023-04-20T14:48:14.267Z,30.00
2023-04-20T14:50:42.434Z,29.90
2023-04-20T14:53:11.100Z,29.80
2023-04-20T14:55:39.296Z,29.60
2023-04-20T14:58:07.482Z,29.30
2023-04-20T15:00:38.938Z,29.40
2023-04-20T15:03:07.339Z,29.40
2023-04-20T15:05:37.492Z,29.50
2023-04-20T15:08:06.398Z,29.60
2023-04-20T15:10:38.235Z,29.60
2023-04-20T15:13:07.143Z,29.50
2023-04-20T15:15:47.656Z,29.20
2023-04-20T15:18:16.893Z,29.30
2023-04-20T15:20:47.160Z,29.20
2023-04-20T15:23:15.436Z,29.10
2023-04-20T15:25:43.827Z,29.00
2023-04-20T15:28:12.145Z,29.10
2023-04-20T15:30:40.350Z,29.30
2023-04-20T15:33:08.754Z,29.30
2023-04-20T15:35:37.300Z,29.30
2023-04-20T15:38:08.014Z,29.40
2023-04-20T15:40:36.424Z,29.50
2023-04-20T15:43:06.618Z,29.50
2023-04-20T15:45:34.829Z,29.50
2023-04-20T15:48:03.248Z,29.60
2023-04-20T15:50:31.883Z,29.60
2023-04-20T15:53:00.068Z,29.60
2023-04-20T15:55:34.265Z,29.50
2023-04-20T15:58:02.500Z,29.50
2023-04-20T16:00:31.393Z,29.50
2023-04-20T16:03:01.452Z,29.40
2023-04-20T16:05:30.148Z,29.40
2023-04-20T16:07:58.311Z,29.40
2023-04-20T16:10:27.375Z,29.50
2023-04-20T16:12:57.477Z,29.50
2023-04-20T16:15:28.357Z,29.50
2023-04-20T16:18:00.069Z,29.50
2023-04-20T16:20:28.392Z,29.50
2023-04-20T16:22:56.817Z,29.50
2023-04-20T16:25:26.631Z,29.50
2023-04-20T16:27:57.881Z,29.50
2023-04-20T16:30:26.672Z,29.50
2023-04-20T16:32:59.661Z,29.50
2023-04-20T16:35:28.075Z,29.60
2023-04-20T16:37:56.955Z,29.50
2023-04-20T16:40:26.158Z,29.60
2023-04-20T16:42:54.394Z,29.60
2023-04-20T16:45:23.969Z,29.70
2023-04-20T16:47:52.225Z,29.60
2023-04-20T16:50:20.620Z,29.60
2023-04-20T16:52:49.241Z,29.60
2023-04-20T16:55:17.734Z,29.60
2023-04-20T16:57:46.861Z,29.60
2023-04-20T17:00:16.171Z,29.60
2023-04-20T17:02:45.901Z,29.60
2023-04-20T17:05:14.485Z,29.60
2023-04-20T17:07:42.683Z,29.60
2023-04-20T17:10:11.293Z,29.60
2023-04-20T17:12:41.575Z,29.60
2023-04-20T17:15:11.292Z,29.50
2023-04-20T17:17:39.661Z,29.40
2023-04-20T17:20:10.706Z,29.40
2023-04-20T17:22:39.008Z,29.50
2023-04-20T17:25:08.119Z,29.30
2023-04-20T17:27:39.347Z,29.20
2023-04-20T17:30:08.761Z,29.00
2023-04-20T17:32:37.070Z,29.00
2023-04-20T17:35:05.909Z,29.00
2023-04-20T17:37:39.306Z,28.90
2023-04-20T17:40:10.340Z,28.80
2023-04-20T17:42:38.556Z,28.70
2023-04-20T17:45:08.179Z,28.60
2023-04-20T17:47:36.398Z,28.50
2023-04-20T17:50:05.414Z,28.40
2023-04-20T17:52:36.164Z,28.30
2023-04-20T17:55:04.770Z,28.20
2023-04-20T17:57:32.950Z,28.10
2023-04-20T18:00:01.679Z,28.00
2023-04-20T18:02:40.451Z,28.00
2023-04-20T18:05:09.586Z,27.90
2023-04-20T18:07:39.109Z,27.90
2023-04-20T18:10:09.811Z,27.70
2023-04-20T18:12:37.956Z,27.60
2023-04-20T18:15:08.330Z,27.50
2023-04-20T18:17:36.820Z,27.30
2023-04-20T18:20:08.364Z,27.20
2023-04-20T18:22:38.304Z,27.10
2023-04-20T18:25:07.329Z,27.00
2023-04-20T18:27:35.534Z,26.90
2023-04-20T18:30:03.902Z,26.90
2023-04-20T18:32:33.034Z,26.80
2023-04-20T18:35:01.625Z,26.70
2023-04-20T18:37:29.809Z,26.70
2023-04-20T18:39:59.929Z,26.70
2023-04-20T18:42:28.535Z,26.60
2023-04-20T18:44:57.216Z,26.60
2023-04-20T18:47:27.078Z,26.50
2023-04-20T18:49:55.306Z,26.50
2023-04-20T18:52:24.180Z,26.50
2023-04-20T18:54:55.225Z,26.60
2023-04-20T18:57:26.589Z,26.50
2023-04-20T18:59:55.612Z,26.60
2023-04-20T19:02:24.047Z,26.50
2023-04-20T19:04:52.402Z,26.40
2023-04-20T19:07:21.537Z,26.50
2023-04-20T19:09:49.695Z,26.50
2023-04-20T19:12:17.911Z,26.60
2023-04-20T19:14:49.284Z,26.60
2023-04-20T19:17:17.805Z,26.60
2023-04-20T19:19:47.918Z,26.50
2023-04-20T19:22:17.823Z,26.60
2023-04-20T19:24:49.002Z,26.60
2023-04-20T19:27:18.261Z,26.70
2023-04-20T19:29:50.848Z,26.80
2023-04-20T19:32:19.709Z,26.70
2023-04-20T19:34:48.503Z,26.70
2023-04-20T19:37:16.683Z,26.80
2023-04-20T19:39:44.854Z,26.40
2023-04-20T19:42:13.061Z,26.50
2023-04-20T19:44:41.278Z,26.50
2023-04-20T19:47:10.890Z,26.50
2023-04-20T19:49:39.110Z,26.30
2023-04-20T19:52:07.467Z,26.30
2023-04-20T19:54:35.692Z,26.30
2023-04-20T19:57:03.902Z,26.20
2023-04-20T19:59:32.706Z,26.30
2023-04-20T20:02:01.061Z,26.30
2023-04-20T20:04:31.739Z,26.30
2023-04-20T20:07:00.201Z,26.30
2023-04-20T20:09:28.387Z,26.40
2023-04-20T20:12:01.108Z,26.10
2023-04-20T20:14:31.007Z,26.10
2023-04-20T20:16:59.153Z,26.20
2023-04-20T20:19:27.760Z,26.30
2023-04-20T20:21:57.289Z,26.30
2023-04-20T20:24:25.979Z,26.20
2023-04-20T20:26:55.120Z,26.30
2023-04-20T20:29:24.089Z,26.20
2023-04-20T20:31:52.418Z,26.10
2023-04-20T20:34:20.689Z,26.30
2023-04-20T20:36:48.936Z,26.30
2023-04-20T20:39:18.913Z,26.30
2023-04-20T20:41:51.203Z,26.30
2023-04-20T20:44:20.586Z,26.40
2023-04-20T20:46:49.126Z,26.40
2023-04-20T20:49:17.528Z,26.40
2023-04-20T20:51:45.886Z,26.40
2023-04-20T20:54:14.140Z,26.40
2023-04-20T20:56:43.782Z,26.40
2023-04-20T20:59:12.004Z,26.40
2023-04-20T21:01:40.376Z,26.40
2023-04-20T21:04:08.727Z,26.40
2023-04-20T21:06:37.095Z,26.10
2023-04-20T21:09:05.632Z,26.10
2023-04-20T21:11:34.006Z,25.90
2023-04-20T21:14:04.020Z,26.00
2023-04-20T21:16:32.444Z,25.90
2023-04-20T21:19:00.876Z,25.90
2023-04-20T21:21:29.049Z,25.80
2023-04-20T21:23:57.266Z,25.30
2023-04-20T21:26:25.454Z,25.60
2023-04-20T21:28:53.969Z,25.60
2023-04-20T21:31:23.523Z,25.60
2023-04-20T21:33:51.772Z,25.60
2023-04-20T21:36:19.945Z,25.70
2023-04-20T21:38:48.711Z,25.40
2023-04-20T21:41:17.064Z,25.50
2023-04-20T21:43:45.570Z,25.30
2023-04-20T21:46:15.753Z,25.20
2023-04-20T21:48:45.610Z,25.50
2023-04-20T21:51:16.772Z,25.10
2023-04-20T21:53:45.832Z,24.70
2023-04-20T21:56:14.808Z,24.60
2023-04-20T21:58:43.107Z,24.30
2023-04-20T22:01:11.498Z,24.50
2023-04-20T22:03:39.845Z,24.60
2023-04-20T22:06:09.809Z,24.20
2023-04-20T22:08:39.868Z,24.20
2023-04-20T22:11:08.225Z,24.20
2023-04-20T22:13:36.820Z,24.10
2023-04-20T22:16:05.913Z,24.00
2023-04-20T22:18:34.178Z,23.90
2023-04-20T22:21:02.406Z,24.10
2023-04-20T22:23:32.227Z,24.00
2023-04-20T22:26:00.457Z,23.70
2023-04-20T22:28:28.646Z,24.10
2023-04-20T22:30:57.216Z,24.20
2023-04-20T22:33:25.587Z,24.30
2023-04-20T22:35:53.742Z,24.10
2023-04-20T22:38:22.008Z,24.30
2023-04-20T22:40:51.649Z,24.10
2023-04-20T22:43:21.075Z,23.50
2023-04-20T22:45:49.281Z,23.50
2023-04-20T22:48:17.547Z,23.50
2023-04-20T22:50:45.909Z,23.50
2023-04-20T22:53:15.384Z,23.30
2023-04-20T22:55:43.744Z,23.30
2023-04-20T22:58:13.274Z,23.50
2023-04-20T23:00:42.273Z,23.80
2023-04-20T23:03:10.745Z,23.70
2023-04-20T23:05:39.210Z,23.60
2023-04-20T23:08:07.656Z,23.60
2023-04-20T23:10:35.798Z,23.70
2023-04-20T23:13:04.956Z,23.70
2023-04-20T23:15:34.509Z,23.60
2023-04-20T23:18:03.513Z,23.90
2023-04-20T23:20:37.155Z,24.00
2023-04-20T23:23:07.398Z,24.00
2023-04-20T23:25:38.163Z,23.90
2023-04-20T23:28:06.417Z,23.00
2023-04-20T23:30:38.716Z,23.10
2023-04-20T23:33:06.989Z,22.70
2023-04-20T23:35:35.332Z,23.00
2023-04-20T23:38:05.173Z,23.10
2023-04-20T23:40:33.447Z,22.40
2023-04-20T23:43:01.648Z,22.80
2023-04-20T23:45:29.859Z,23.00
2023-04-20T23:47:59.438Z,22.60
2023-04-20T23:50:27.599Z,22.90
2023-04-20T23:52:55.768Z,22.90
2023-04-20T23:55:24.004Z,23.40
2023-04-20T23:57:52.881Z,23.20
